sensor_id;sensor_type;location;lat;lon;timestamp;P1;durP1;ratioP1;P2;durP2;ratioP2
47589;SDS011;33316;52.298;9.056;2023-06-10T00:00:56;3.47;;;2.10;;
47589;SDS011;33316;52.298;9.056;2023-06-10T00:03:22;6.22;;;2.05;;
47589;SDS011;33316;52.298;9.056;2023-06-10T00:05:50;5.18;;;2.97;;
47589;SDS011;33316;52.298;9.056;2023-06-10T00:08:17;5.07;;;2.42;;
47589;SDS011;33316;52.298;9.056;2023-06-10T00:10:44;4.28;;;2.85;;
47589;SDS011;33316;52.298;9.056;2023-06-10T00:13:11;4.60;;;2.60;;
47589;SDS011;33316;52.298;9.056;2023-06-10T00:15:38;3.63;;;2.20;;
47589;SDS011;33316;52.298;9.056;2023-06-10T00:18:05;3.97;;;2.20;;
47589;SDS011;33316;52.298;9.056;2023-06-10T00:20:34;4.43;;;2.60;;
47589;SDS011;33316;52.298;9.056;2023-06-10T00:23:04;3.78;;;2.58;;
47589;SDS011;33316;52.298;9.056;2023-06-10T00:25:34;5.07;;;2.53;;
47589;SDS011;33316;52.298;9.056;2023-06-10T00:28:01;5.70;;;2.80;;
47589;SDS011;33316;52.298;9.056;2023-06-10T00:30:27;3.35;;;2.47;;
47589;SDS011;33316;52.298;9.056;2023-06-10T00:32:54;4.05;;;2.25;;
47589;SDS011;33316;52.298;9.056;2023-06-10T00:35:21;4.18;;;2.22;;
47589;SDS011;33316;52.298;9.056;2023-06-10T00:37:47;3.95;;;2.15;;
47589;SDS011;33316;52.298;9.056;2023-06-10T00:40:16;4.35;;;2.38;;
47589;SDS011;33316;52.298;9.056;2023-06-10T00:42:42;3.22;;;1.88;;
47589;SDS011;33316;52.298;9.056;2023-06-10T00:45:09;3.72;;;2.20;;
47589;SDS011;33316;52.298;9.056;2023-06-10T00:47:36;3.95;;;2.25;;
47589;SDS011;33316;52.298;9.056;2023-06-10T00:50:03;2.42;;;1.88;;
47589;SDS011;33316;52.298;9.056;2023-06-10T00:52:31;5.30;;;2.38;;
47589;SDS011;33316;52.298;9.056;2023-06-10T00:54:59;4.32;;;2.10;;
47589;SDS011;33316;52.298;9.056;2023-06-10T00:57:27;3.63;;;2.25;;
47589;SDS011;33316;52.298;9.056;2023-06-10T00:59:54;4.72;;;2.53;;
47589;SDS011;33316;52.298;9.056;2023-06-10T01:02:20;6.50;;;2.83;;
47589;SDS011;33316;52.298;9.056;2023-06-10T01:04:47;3.47;;;1.83;;
47589;SDS011;33316;52.298;9.056;2023-06-10T01:07:15;8.27;;;2.45;;
47589;SDS011;33316;52.298;9.056;2023-06-10T01:09:49;3.90;;;2.10;;
47589;SDS011;33316;52.298;9.056;2023-06-10T01:12:25;5.05;;;2.05;;
47589;SDS011;33316;52.298;9.056;2023-06-10T01:14:57;3.47;;;2.10;;
47589;SDS011;33316;52.298;9.056;2023-06-10T01:17:26;4.00;;;2.55;;
47589;SDS011;33316;52.298;9.056;2023-06-10T01:19:55;3.95;;;2.60;;
47589;SDS011;33316;52.298;9.056;2023-06-10T01:22:24;4.88;;;2.10;;
47589;SDS011;33316;52.298;9.056;2023-06-10T01:24:53;4.88;;;2.13;;
47589;SDS011;33316;52.298;9.056;2023-06-10T01:27:23;4.57;;;2.30;;
47589;SDS011;33316;52.298;9.056;2023-06-10T01:32:29;3.15;;;1.80;;
47589;SDS011;33316;52.298;9.056;2023-06-10T01:35:01;3.67;;;1.98;;
47589;SDS011;33316;52.298;9.056;2023-06-10T01:37:30;4.55;;;2.03;;
47589;SDS011;33316;52.298;9.056;2023-06-10T01:40:00;4.13;;;2.00;;
47589;SDS011;33316;52.298;9.056;2023-06-10T01:42:30;5.75;;;2.65;;
47589;SDS011;33316;52.298;9.056;2023-06-10T01:44:58;3.25;;;2.40;;
47589;SDS011;33316;52.298;9.056;2023-06-10T01:47:25;7.03;;;2.38;;
47589;SDS011;33316;52.298;9.056;2023-06-10T01:49:51;5.35;;;2.33;;
47589;SDS011;33316;52.298;9.056;2023-06-10T01:52:18;5.05;;;2.40;;
47589;SDS011;33316;52.298;9.056;2023-06-10T01:54:46;6.50;;;2.20;;
47589;SDS011;33316;52.298;9.056;2023-06-10T01:57:13;7.15;;;2.50;;
47589;SDS011;33316;52.298;9.056;2023-06-10T01:59:39;5.80;;;2.25;;
47589;SDS011;33316;52.298;9.056;2023-06-10T02:02:09;4.80;;;2.38;;
47589;SDS011;33316;52.298;9.056;2023-06-10T02:04:36;4.78;;;2.40;;
47589;SDS011;33316;52.298;9.056;2023-06-10T02:07:02;4.78;;;2.50;;
47589;SDS011;33316;52.298;9.056;2023-06-10T02:09:30;10.15;;;2.90;;
47589;SDS011;33316;52.298;9.056;2023-06-10T02:12:01;6.47;;;2.78;;
47589;SDS011;33316;52.298;9.056;2023-06-10T02:14:28;5.38;;;2.75;;
47589;SDS011;33316;52.298;9.056;2023-06-10T02:16:54;5.85;;;2.78;;
47589;SDS011;33316;52.298;9.056;2023-06-10T02:19:22;7.10;;;2.40;;
47589;SDS011;33316;52.298;9.056;2023-06-10T02:21:50;4.57;;;2.50;;
47589;SDS011;33316;52.298;9.056;2023-06-10T02:24:16;4.57;;;2.63;;
47589;SDS011;33316;52.298;9.056;2023-06-10T02:26:43;3.58;;;2.20;;
47589;SDS011;33316;52.298;9.056;2023-06-10T02:29:12;7.47;;;2.40;;
47589;SDS011;33316;52.298;9.056;2023-06-10T02:31:39;4.60;;;2.70;;
47589;SDS011;33316;52.298;9.056;2023-06-10T02:34:06;5.57;;;2.30;;
47589;SDS011;33316;52.298;9.056;2023-06-10T02:36:32;6.85;;;2.53;;
47589;SDS011;33316;52.298;9.056;2023-06-10T02:39:00;5.63;;;2.60;;
47589;SDS011;33316;52.298;9.056;2023-06-10T02:41:27;4.45;;;2.17;;
47589;SDS011;33316;52.298;9.056;2023-06-10T02:43:54;3.97;;;2.35;;
47589;SDS011;33316;52.298;9.056;2023-06-10T02:46:22;3.10;;;1.77;;
47589;SDS011;33316;52.298;9.056;2023-06-10T02:48:49;4.88;;;2.05;;
47589;SDS011;33316;52.298;9.056;2023-06-10T02:51:16;3.65;;;1.92;;
47589;SDS011;33316;52.298;9.056;2023-06-10T02:53:43;2.95;;;2.00;;
47589;SDS011;33316;52.298;9.056;2023-06-10T02:56:10;4.28;;;2.22;;
47589;SDS011;33316;52.298;9.056;2023-06-10T02:58:37;4.90;;;2.60;;
47589;SDS011;33316;52.298;9.056;2023-06-10T03:01:04;6.25;;;2.45;;
47589;SDS011;33316;52.298;9.056;2023-06-10T03:03:32;5.97;;;2.90;;
47589;SDS011;33316;52.298;9.056;2023-06-10T03:05:59;8.77;;;2.50;;
47589;SDS011;33316;52.298;9.056;2023-06-10T03:08:26;5.13;;;2.60;;
47589;SDS011;33316;52.298;9.056;2023-06-10T03:10:53;4.90;;;2.35;;
47589;SDS011;33316;52.298;9.056;2023-06-10T03:13:19;5.70;;;2.75;;
47589;SDS011;33316;52.298;9.056;2023-06-10T03:15:46;6.60;;;3.15;;
47589;SDS011;33316;52.298;9.056;2023-06-10T03:18:13;5.75;;;2.72;;
47589;SDS011;33316;52.298;9.056;2023-06-10T03:20:41;5.22;;;2.45;;
47589;SDS011;33316;52.298;9.056;2023-06-10T03:23:09;4.85;;;2.40;;
47589;SDS011;33316;52.298;9.056;2023-06-10T03:25:36;6.53;;;2.83;;
47589;SDS011;33316;52.298;9.056;2023-06-10T03:28:03;4.65;;;2.55;;
47589;SDS011;33316;52.298;9.056;2023-06-10T03:30:29;4.90;;;2.53;;
47589;SDS011;33316;52.298;9.056;2023-06-10T03:32:56;3.83;;;2.25;;
47589;SDS011;33316;52.298;9.056;2023-06-10T03:35:23;4.55;;;2.45;;
47589;SDS011;33316;52.298;9.056;2023-06-10T03:37:51;4.93;;;2.80;;
47589;SDS011;33316;52.298;9.056;2023-06-10T03:40:18;5.78;;;2.70;;
47589;SDS011;33316;52.298;9.056;2023-06-10T03:42:44;5.57;;;2.78;;
47589;SDS011;33316;52.298;9.056;2023-06-10T03:45:11;5.18;;;2.70;;
47589;SDS011;33316;52.298;9.056;2023-06-10T03:47:38;7.22;;;2.45;;
47589;SDS011;33316;52.298;9.056;2023-06-10T03:50:06;7.15;;;2.70;;
47589;SDS011;33316;52.298;9.056;2023-06-10T03:52:33;5.13;;;2.50;;
47589;SDS011;33316;52.298;9.056;2023-06-10T03:55:02;7.35;;;2.83;;
47589;SDS011;33316;52.298;9.056;2023-06-10T03:57:30;5.97;;;2.80;;
47589;SDS011;33316;52.298;9.056;2023-06-10T03:59:56;6.20;;;2.92;;
47589;SDS011;33316;52.298;9.056;2023-06-10T04:02:23;7.25;;;2.72;;
47589;SDS011;33316;52.298;9.056;2023-06-10T04:04:50;4.90;;;2.78;;
47589;SDS011;33316;52.298;9.056;2023-06-10T04:07:17;10.32;;;3.40;;
47589;SDS011;33316;52.298;9.056;2023-06-10T04:09:44;5.50;;;3.28;;
47589;SDS011;33316;52.298;9.056;2023-06-10T04:12:13;8.23;;;3.33;;
47589;SDS011;33316;52.298;9.056;2023-06-10T04:14:39;6.03;;;3.00;;
47589;SDS011;33316;52.298;9.056;2023-06-10T04:17:06;5.95;;;3.17;;
47589;SDS011;33316;52.298;9.056;2023-06-10T04:19:32;7.82;;;3.13;;
47589;SDS011;33316;52.298;9.056;2023-06-10T04:22:00;5.13;;;2.80;;
47589;SDS011;33316;52.298;9.056;2023-06-10T04:24:27;4.55;;;2.85;;
47589;SDS011;33316;52.298;9.056;2023-06-10T04:26:54;5.38;;;3.28;;
47589;SDS011;33316;52.298;9.056;2023-06-10T04:29:22;7.63;;;3.65;;
47589;SDS011;33316;52.298;9.056;2023-06-10T04:31:49;6.45;;;3.42;;
47589;SDS011;33316;52.298;9.056;2023-06-10T04:34:15;6.57;;;3.00;;
47589;SDS011;33316;52.298;9.056;2023-06-10T04:36:42;8.93;;;3.67;;
47589;SDS011;33316;52.298;9.056;2023-06-10T04:39:08;7.40;;;3.28;;
47589;SDS011;33316;52.298;9.056;2023-06-10T04:41:35;8.95;;;3.95;;
47589;SDS011;33316;52.298;9.056;2023-06-10T04:44:02;5.80;;;3.20;;
47589;SDS011;33316;52.298;9.056;2023-06-10T04:46:30;7.18;;;3.13;;
47589;SDS011;33316;52.298;9.056;2023-06-10T04:48:57;6.80;;;2.80;;
47589;SDS011;33316;52.298;9.056;2023-06-10T04:51:23;7.97;;;3.75;;
47589;SDS011;33316;52.298;9.056;2023-06-10T04:53:50;4.43;;;2.90;;
47589;SDS011;33316;52.298;9.056;2023-06-10T04:56:17;9.90;;;3.30;;
47589;SDS011;33316;52.298;9.056;2023-06-10T04:58:45;6.43;;;2.70;;
47589;SDS011;33316;52.298;9.056;2023-06-10T05:01:12;6.03;;;3.03;;
47589;SDS011;33316;52.298;9.056;2023-06-10T05:03:40;6.85;;;3.20;;
47589;SDS011;33316;52.298;9.056;2023-06-10T05:06:06;8.65;;;3.38;;
47589;SDS011;33316;52.298;9.056;2023-06-10T05:08:33;7.78;;;3.65;;
47589;SDS011;33316;52.298;9.056;2023-06-10T05:11:00;9.55;;;4.22;;
47589;SDS011;33316;52.298;9.056;2023-06-10T05:13:26;8.82;;;3.97;;
47589;SDS011;33316;52.298;9.056;2023-06-10T05:15:53;8.73;;;3.70;;
47589;SDS011;33316;52.298;9.056;2023-06-10T05:18:20;7.63;;;3.10;;
47589;SDS011;33316;52.298;9.056;2023-06-10T05:20:48;7.50;;;4.00;;
47589;SDS011;33316;52.298;9.056;2023-06-10T05:23:15;5.40;;;3.50;;
47589;SDS011;33316;52.298;9.056;2023-06-10T05:25:42;7.10;;;3.08;;
47589;SDS011;33316;52.298;9.056;2023-06-10T05:28:08;6.53;;;3.50;;
47589;SDS011;33316;52.298;9.056;2023-06-10T05:30:36;7.43;;;3.78;;
47589;SDS011;33316;52.298;9.056;2023-06-10T05:33:03;8.43;;;3.67;;
47589;SDS011;33316;52.298;9.056;2023-06-10T05:35:30;6.40;;;3.40;;
47589;SDS011;33316;52.298;9.056;2023-06-10T05:37:58;5.47;;;3.05;;
47589;SDS011;33316;52.298;9.056;2023-06-10T05:40:24;8.10;;;3.78;;
47589;SDS011;33316;52.298;9.056;2023-06-10T05:42:51;7.90;;;3.80;;
47589;SDS011;33316;52.298;9.056;2023-06-10T05:45:18;7.57;;;3.83;;
47589;SDS011;33316;52.298;9.056;2023-06-10T05:47:44;9.23;;;4.32;;
47589;SDS011;33316;52.298;9.056;2023-06-10T05:50:11;6.28;;;3.60;;
47589;SDS011;33316;52.298;9.056;2023-06-10T05:52:38;7.72;;;3.90;;
47589;SDS011;33316;52.298;9.056;2023-06-10T05:55:07;6.80;;;3.90;;
47589;SDS011;33316;52.298;9.056;2023-06-10T05:57:34;7.38;;;3.80;;
47589;SDS011;33316;52.298;9.056;2023-06-10T06:00:01;10.10;;;4.72;;
47589;SDS011;33316;52.298;9.056;2023-06-10T06:02:27;6.43;;;3.75;;
47589;SDS011;33316;52.298;9.056;2023-06-10T06:04:54;7.03;;;4.00;;
47589;SDS011;33316;52.298;9.056;2023-06-10T06:07:21;7.45;;;4.25;;
47589;SDS011;33316;52.298;9.056;2023-06-10T06:09:47;9.20;;;5.03;;
47589;SDS011;33316;52.298;9.056;2023-06-10T06:12:15;8.88;;;4.63;;
47589;SDS011;33316;52.298;9.056;2023-06-10T06:14:42;12.00;;;4.80;;
47589;SDS011;33316;52.298;9.056;2023-06-10T06:17:09;9.90;;;4.88;;
47589;SDS011;33316;52.298;9.056;2023-06-10T06:19:36;8.80;;;5.25;;
47589;SDS011;33316;52.298;9.056;2023-06-10T06:22:03;8.98;;;4.85;;
47589;SDS011;33316;52.298;9.056;2023-06-10T06:24:30;8.63;;;4.50;;
47589;SDS011;33316;52.298;9.056;2023-06-10T06:26:56;10.40;;;4.78;;
47589;SDS011;33316;52.298;9.056;2023-06-10T06:29:24;9.05;;;5.00;;
47589;SDS011;33316;52.298;9.056;2023-06-10T06:31:51;9.60;;;4.97;;
47589;SDS011;33316;52.298;9.056;2023-06-10T06:34:21;7.20;;;4.82;;
47589;SDS011;33316;52.298;9.056;2023-06-10T06:36:47;9.75;;;5.78;;
47589;SDS011;33316;52.298;9.056;2023-06-10T06:39:16;8.40;;;5.03;;
47589;SDS011;33316;52.298;9.056;2023-06-10T06:41:43;9.25;;;4.78;;
47589;SDS011;33316;52.298;9.056;2023-06-10T06:44:10;7.78;;;5.05;;
47589;SDS011;33316;52.298;9.056;2023-06-10T06:46:38;11.95;;;5.93;;
47589;SDS011;33316;52.298;9.056;2023-06-10T06:49:04;9.32;;;5.85;;
47589;SDS011;33316;52.298;9.056;2023-06-10T06:51:31;9.20;;;5.82;;
47589;SDS011;33316;52.298;9.056;2023-06-10T06:53:58;9.93;;;5.65;;
47589;SDS011;33316;52.298;9.056;2023-06-10T06:56:24;9.95;;;6.55;;
47589;SDS011;33316;52.298;9.056;2023-06-10T06:58:54;8.20;;;5.20;;
47589;SDS011;33316;52.298;9.056;2023-06-10T07:01:20;10.63;;;5.75;;
47589;SDS011;33316;52.298;9.056;2023-06-10T07:03:53;8.30;;;5.78;;
47589;SDS011;33316;52.298;9.056;2023-06-10T07:06:20;10.50;;;5.57;;
47589;SDS011;33316;52.298;9.056;2023-06-10T07:08:48;8.57;;;6.22;;
47589;SDS011;33316;52.298;9.056;2023-06-10T07:11:15;9.38;;;5.65;;
47589;SDS011;33316;52.298;9.056;2023-06-10T07:13:42;10.13;;;6.28;;
47589;SDS011;33316;52.298;9.056;2023-06-10T07:16:11;8.25;;;5.45;;
47589;SDS011;33316;52.298;9.056;2023-06-10T07:18:40;11.93;;;5.57;;
47589;SDS011;33316;52.298;9.056;2023-06-10T07:21:08;8.85;;;5.47;;
47589;SDS011;33316;52.298;9.056;2023-06-10T07:23:35;10.32;;;5.32;;
47589;SDS011;33316;52.298;9.056;2023-06-10T07:26:01;9.55;;;5.10;;
47589;SDS011;33316;52.298;9.056;2023-06-10T07:28:28;9.68;;;4.30;;
47589;SDS011;33316;52.298;9.056;2023-06-10T07:30:55;6.95;;;4.47;;
47589;SDS011;33316;52.298;9.056;2023-06-10T07:33:22;10.90;;;5.32;;
47589;SDS011;33316;52.298;9.056;2023-06-10T07:35:48;7.60;;;4.40;;
47589;SDS011;33316;52.298;9.056;2023-06-10T07:38:17;12.10;;;5.10;;
47589;SDS011;33316;52.298;9.056;2023-06-10T07:40:43;8.52;;;4.85;;
47589;SDS011;33316;52.298;9.056;2023-06-10T07:43:11;7.28;;;3.63;;
47589;SDS011;33316;52.298;9.056;2023-06-10T07:45:39;8.57;;;4.82;;
47589;SDS011;33316;52.298;9.056;2023-06-10T07:48:05;6.70;;;3.53;;
47589;SDS011;33316;52.298;9.056;2023-06-10T07:50:32;7.88;;;4.95;;
47589;SDS011;33316;52.298;9.056;2023-06-10T07:52:59;11.27;;;5.10;;
47589;SDS011;33316;52.298;9.056;2023-06-10T07:55:27;7.43;;;4.68;;
47589;SDS011;33316;52.298;9.056;2023-06-10T07:57:54;7.63;;;4.45;;
47589;SDS011;33316;52.298;9.056;2023-06-10T08:00:21;5.63;;;3.92;;
47589;SDS011;33316;52.298;9.056;2023-06-10T08:02:47;12.30;;;4.45;;
47589;SDS011;33316;52.298;9.056;2023-06-10T08:05:15;8.98;;;5.00;;
47589;SDS011;33316;52.298;9.056;2023-06-10T08:07:42;9.05;;;4.20;;
47589;SDS011;33316;52.298;9.056;2023-06-10T08:10:09;9.63;;;4.55;;
47589;SDS011;33316;52.298;9.056;2023-06-10T08:12:37;7.80;;;4.85;;
47589;SDS011;33316;52.298;9.056;2023-06-10T08:15:05;8.85;;;4.80;;
47589;SDS011;33316;52.298;9.056;2023-06-10T08:17:32;8.00;;;4.30;;
47589;SDS011;33316;52.298;9.056;2023-06-10T08:19:59;7.25;;;4.65;;
47589;SDS011;33316;52.298;9.056;2023-06-10T08:22:25;8.77;;;4.57;;
47589;SDS011;33316;52.298;9.056;2023-06-10T08:24:53;8.80;;;4.47;;
47589;SDS011;33316;52.298;9.056;2023-06-10T08:27:23;7.18;;;4.43;;
47589;SDS011;33316;52.298;9.056;2023-06-10T08:29:51;12.85;;;5.05;;
47589;SDS011;33316;52.298;9.056;2023-06-10T08:32:18;10.70;;;5.45;;
47589;SDS011;33316;52.298;9.056;2023-06-10T08:34:45;7.03;;;4.35;;
47589;SDS011;33316;52.298;9.056;2023-06-10T08:37:14;9.75;;;4.05;;
47589;SDS011;33316;52.298;9.056;2023-06-10T08:39:41;10.98;;;4.25;;
47589;SDS011;33316;52.298;9.056;2023-06-10T08:42:11;6.35;;;4.03;;
47589;SDS011;33316;52.298;9.056;2023-06-10T08:44:43;6.68;;;3.38;;
47589;SDS011;33316;52.298;9.056;2023-06-10T08:47:14;8.02;;;4.78;;
47589;SDS011;33316;52.298;9.056;2023-06-10T08:49:43;8.48;;;4.38;;
47589;SDS011;33316;52.298;9.056;2023-06-10T08:52:11;8.30;;;4.32;;
47589;SDS011;33316;52.298;9.056;2023-06-10T08:54:41;8.23;;;4.45;;
47589;SDS011;33316;52.298;9.056;2023-06-10T08:57:12;11.15;;;5.05;;
47589;SDS011;33316;52.298;9.056;2023-06-10T08:59:39;5.53;;;3.45;;
47589;SDS011;33316;52.298;9.056;2023-06-10T09:02:07;6.25;;;4.10;;
47589;SDS011;33316;52.298;9.056;2023-06-10T09:04:37;7.57;;;4.80;;
47589;SDS011;33316;52.298;9.056;2023-06-10T09:07:04;6.45;;;4.03;;
47589;SDS011;33316;52.298;9.056;2023-06-10T09:09:32;8.07;;;4.40;;
47589;SDS011;33316;52.298;9.056;2023-06-10T09:12:01;8.75;;;4.13;;
47589;SDS011;33316;52.298;9.056;2023-06-10T09:14:28;7.05;;;3.95;;
47589;SDS011;33316;52.298;9.056;2023-06-10T09:16:55;8.05;;;4.55;;
47589;SDS011;33316;52.298;9.056;2023-06-10T09:19:22;7.32;;;3.88;;
47589;SDS011;33316;52.298;9.056;2023-06-10T09:21:52;7.53;;;3.38;;
47589;SDS011;33316;52.298;9.056;2023-06-10T09:24:19;9.70;;;4.32;;
47589;SDS011;33316;52.298;9.056;2023-06-10T09:26:48;13.25;;;5.40;;
47589;SDS011;33316;52.298;9.056;2023-06-10T09:29:15;9.52;;;3.97;;
47589;SDS011;33316;52.298;9.056;2023-06-10T09:31:43;9.00;;;3.90;;
47589;SDS011;33316;52.298;9.056;2023-06-10T09:34:11;5.60;;;3.10;;
47589;SDS011;33316;52.298;9.056;2023-06-10T09:36:40;7.22;;;3.33;;
47589;SDS011;33316;52.298;9.056;2023-06-10T09:39:14;9.13;;;3.78;;
47589;SDS011;33316;52.298;9.056;2023-06-10T09:41:42;8.90;;;3.95;;
47589;SDS011;33316;52.298;9.056;2023-06-10T09:44:11;7.28;;;3.60;;
47589;SDS011;33316;52.298;9.056;2023-06-10T09:46:40;5.43;;;3.08;;
47589;SDS011;33316;52.298;9.056;2023-06-10T09:49:07;5.35;;;2.85;;
47589;SDS011;33316;52.298;9.056;2023-06-10T09:51:35;5.32;;;3.00;;
47589;SDS011;33316;52.298;9.056;2023-06-10T09:54:02;6.93;;;3.22;;
47589;SDS011;33316;52.298;9.056;2023-06-10T09:56:33;6.05;;;3.17;;
47589;SDS011;33316;52.298;9.056;2023-06-10T09:59:01;5.80;;;3.33;;
47589;SDS011;33316;52.298;9.056;2023-06-10T10:01:29;5.28;;;2.85;;
47589;SDS011;33316;52.298;9.056;2023-06-10T10:03:58;8.43;;;3.22;;
47589;SDS011;33316;52.298;9.056;2023-06-10T10:06:25;7.25;;;2.97;;
47589;SDS011;33316;52.298;9.056;2023-06-10T10:08:53;4.40;;;2.55;;
47589;SDS011;33316;52.298;9.056;2023-06-10T10:11:20;7.22;;;3.33;;
47589;SDS011;33316;52.298;9.056;2023-06-10T10:13:50;4.88;;;2.75;;
47589;SDS011;33316;52.298;9.056;2023-06-10T10:16:17;5.72;;;2.60;;
47589;SDS011;33316;52.298;9.056;2023-06-10T10:18:49;5.05;;;2.58;;
47589;SDS011;33316;52.298;9.056;2023-06-10T10:21:21;3.92;;;2.25;;
47589;SDS011;33316;52.298;9.056;2023-06-10T10:23:52;5.00;;;2.80;;
47589;SDS011;33316;52.298;9.056;2023-06-10T10:26:24;6.40;;;2.60;;
47589;SDS011;33316;52.298;9.056;2023-06-10T10:28:56;3.88;;;2.45;;
47589;SDS011;33316;52.298;9.056;2023-06-10T10:31:31;6.50;;;3.00;;
47589;SDS011;33316;52.298;9.056;2023-06-10T10:33:59;4.60;;;2.85;;
47589;SDS011;33316;52.298;9.056;2023-06-10T10:36:28;6.90;;;2.80;;
47589;SDS011;33316;52.298;9.056;2023-06-10T10:38:55;7.25;;;2.80;;
47589;SDS011;33316;52.298;9.056;2023-06-10T10:41:23;4.97;;;2.78;;
47589;SDS011;33316;52.298;9.056;2023-06-10T10:43:51;4.80;;;2.67;;
47589;SDS011;33316;52.298;9.056;2023-06-10T10:46:20;4.75;;;2.38;;
47589;SDS011;33316;52.298;9.056;2023-06-10T10:48:51;5.25;;;2.72;;
47589;SDS011;33316;52.298;9.056;2023-06-10T10:51:19;6.22;;;2.90;;
47589;SDS011;33316;52.298;9.056;2023-06-10T10:56:37;4.82;;;2.20;;
47589;SDS011;33316;52.298;9.056;2023-06-10T10:59:04;4.13;;;2.58;;
47589;SDS011;33316;52.298;9.056;2023-06-10T11:01:40;4.55;;;2.35;;
47589;SDS011;33316;52.298;9.056;2023-06-10T11:04:10;4.00;;;2.03;;
47589;SDS011;33316;52.298;9.056;2023-06-10T11:06:37;5.97;;;2.90;;
47589;SDS011;33316;52.298;9.056;2023-06-10T11:11:52;6.45;;;2.42;;
47589;SDS011;33316;52.298;9.056;2023-06-10T11:14:25;6.32;;;2.95;;
47589;SDS011;33316;52.298;9.056;2023-06-10T11:16:54;4.00;;;2.15;;
47589;SDS011;33316;52.298;9.056;2023-06-10T11:19:32;2.45;;;1.92;;
47589;SDS011;33316;52.298;9.056;2023-06-10T11:22:01;3.28;;;1.80;;
47589;SDS011;33316;52.298;9.056;2023-06-10T11:24:28;5.53;;;2.65;;
47589;SDS011;33316;52.298;9.056;2023-06-10T11:26:55;3.53;;;1.80;;
47589;SDS011;33316;52.298;9.056;2023-06-10T11:29:54;6.63;;;2.30;;
47589;SDS011;33316;52.298;9.056;2023-06-10T11:32:23;3.08;;;1.85;;
47589;SDS011;33316;52.298;9.056;2023-06-10T11:34:55;4.45;;;2.13;;
47589;SDS011;33316;52.298;9.056;2023-06-10T11:37:22;6.10;;;2.40;;
47589;SDS011;33316;52.298;9.056;2023-06-10T11:39:51;3.83;;;2.25;;
47589;SDS011;33316;52.298;9.056;2023-06-10T11:42:18;4.35;;;2.55;;
47589;SDS011;33316;52.298;9.056;2023-06-10T11:44:47;8.88;;;2.70;;
47589;SDS011;33316;52.298;9.056;2023-06-10T11:47:15;4.18;;;2.28;;
47589;SDS011;33316;52.298;9.056;2023-06-10T11:49:43;9.25;;;2.70;;
47589;SDS011;33316;52.298;9.056;2023-06-10T11:52:10;4.00;;;2.55;;
47589;SDS011;33316;52.298;9.056;2023-06-10T11:54:37;4.22;;;2.45;;
47589;SDS011;33316;52.298;9.056;2023-06-10T11:57:04;5.85;;;3.10;;
47589;SDS011;33316;52.298;9.056;2023-06-10T11:59:33;4.38;;;2.60;;
47589;SDS011;33316;52.298;9.056;2023-06-10T12:02:00;6.13;;;2.78;;
47589;SDS011;33316;52.298;9.056;2023-06-10T12:04:26;4.50;;;2.30;;
47589;SDS011;33316;52.298;9.056;2023-06-10T12:06:54;3.85;;;2.30;;
47589;SDS011;33316;52.298;9.056;2023-06-10T12:09:22;4.75;;;2.90;;
47589;SDS011;33316;52.298;9.056;2023-06-10T12:11:50;4.55;;;2.63;;
47589;SDS011;33316;52.298;9.056;2023-06-10T12:17:16;4.72;;;2.50;;
47589;SDS011;33316;52.298;9.056;2023-06-10T12:19:43;4.70;;;2.78;;
47589;SDS011;33316;52.298;9.056;2023-06-10T12:22:11;4.13;;;2.72;;
47589;SDS011;33316;52.298;9.056;2023-06-10T12:24:43;5.25;;;2.95;;
47589;SDS011;33316;52.298;9.056;2023-06-10T12:27:11;4.97;;;2.90;;
47589;SDS011;33316;52.298;9.056;2023-06-10T12:29:38;5.70;;;2.97;;
47589;SDS011;33316;52.298;9.056;2023-06-10T12:32:04;5.90;;;2.80;;
47589;SDS011;33316;52.298;9.056;2023-06-10T12:34:33;4.13;;;2.90;;
47589;SDS011;33316;52.298;9.056;2023-06-10T12:37:01;7.45;;;3.10;;
47589;SDS011;33316;52.298;9.056;2023-06-10T12:39:31;4.10;;;2.60;;
47589;SDS011;33316;52.298;9.056;2023-06-10T12:42:00;5.70;;;2.47;;
47589;SDS011;33316;52.298;9.056;2023-06-10T12:44:33;6.20;;;2.90;;
47589;SDS011;33316;52.298;9.056;2023-06-10T12:47:06;4.57;;;3.00;;
47589;SDS011;33316;52.298;9.056;2023-06-10T12:49:35;4.25;;;2.80;;
47589;SDS011;33316;52.298;9.056;2023-06-10T12:52:02;7.38;;;3.55;;
47589;SDS011;33316;52.298;9.056;2023-06-10T12:54:29;6.80;;;2.83;;
47589;SDS011;33316;52.298;9.056;2023-06-10T12:56:57;6.22;;;2.83;;
47589;SDS011;33316;52.298;9.056;2023-06-10T12:59:24;4.70;;;2.88;;
47589;SDS011;33316;52.298;9.056;2023-06-10T13:01:51;4.13;;;2.63;;
47589;SDS011;33316;52.298;9.056;2023-06-10T13:04:18;5.75;;;2.95;;
47589;SDS011;33316;52.298;9.056;2023-06-10T13:06:45;3.35;;;2.50;;
47589;SDS011;33316;52.298;9.056;2023-06-10T13:09:12;4.70;;;3.45;;
47589;SDS011;33316;52.298;9.056;2023-06-10T13:11:39;6.22;;;2.95;;
47589;SDS011;33316;52.298;9.056;2023-06-10T13:14:08;4.07;;;3.10;;
47589;SDS011;33316;52.298;9.056;2023-06-10T13:16:38;5.82;;;3.13;;
47589;SDS011;33316;52.298;9.056;2023-06-10T13:19:05;3.97;;;2.80;;
47589;SDS011;33316;52.298;9.056;2023-06-10T13:21:32;6.78;;;3.42;;
47589;SDS011;33316;52.298;9.056;2023-06-10T13:23:59;7.00;;;3.63;;
47589;SDS011;33316;52.298;9.056;2023-06-10T13:26:26;6.32;;;3.42;;
47589;SDS011;33316;52.298;9.056;2023-06-10T13:28:53;5.85;;;3.33;;
47589;SDS011;33316;52.298;9.056;2023-06-10T13:31:21;4.80;;;2.95;;
47589;SDS011;33316;52.298;9.056;2023-06-10T13:33:48;8.68;;;3.58;;
47589;SDS011;33316;52.298;9.056;2023-06-10T13:36:14;4.88;;;2.72;;
47589;SDS011;33316;52.298;9.056;2023-06-10T13:38:41;4.55;;;2.97;;
47589;SDS011;33316;52.298;9.056;2023-06-10T13:41:08;4.65;;;2.85;;
47589;SDS011;33316;52.298;9.056;2023-06-10T13:43:35;6.50;;;3.60;;
47589;SDS011;33316;52.298;9.056;2023-06-10T13:46:01;4.82;;;2.90;;
47589;SDS011;33316;52.298;9.056;2023-06-10T13:48:29;4.75;;;3.30;;
47589;SDS011;33316;52.298;9.056;2023-06-10T13:50:56;4.60;;;3.28;;
47589;SDS011;33316;52.298;9.056;2023-06-10T13:53:24;7.03;;;3.63;;
47589;SDS011;33316;52.298;9.056;2023-06-10T13:55:51;4.57;;;3.30;;
47589;SDS011;33316;52.298;9.056;2023-06-10T13:58:18;5.85;;;3.63;;
47589;SDS011;33316;52.298;9.056;2023-06-10T14:00:44;8.40;;;3.60;;
47589;SDS011;33316;52.298;9.056;2023-06-10T14:03:12;6.40;;;3.53;;
47589;SDS011;33316;52.298;9.056;2023-06-10T14:05:40;4.75;;;3.22;;
47589;SDS011;33316;52.298;9.056;2023-06-10T14:08:07;3.90;;;2.95;;
47589;SDS011;33316;52.298;9.056;2023-06-10T14:10:34;6.38;;;3.10;;
47589;SDS011;33316;52.298;9.056;2023-06-10T14:13:01;7.00;;;3.17;;
47589;SDS011;33316;52.298;9.056;2023-06-10T14:15:28;4.82;;;4.05;;
47589;SDS011;33316;52.298;9.056;2023-06-10T14:17:54;6.35;;;3.45;;
47589;SDS011;33316;52.298;9.056;2023-06-10T14:20:21;5.65;;;3.58;;
47589;SDS011;33316;52.298;9.056;2023-06-10T14:22:49;6.22;;;3.78;;
47589;SDS011;33316;52.298;9.056;2023-06-10T14:25:18;5.07;;;3.45;;
47589;SDS011;33316;52.298;9.056;2023-06-10T14:27:44;4.72;;;3.03;;
47589;SDS011;33316;52.298;9.056;2023-06-10T14:30:12;4.95;;;3.55;;
47589;SDS011;33316;52.298;9.056;2023-06-10T14:32:39;4.15;;;3.03;;
47589;SDS011;33316;52.298;9.056;2023-06-10T14:35:06;5.78;;;3.28;;
47589;SDS011;33316;52.298;9.056;2023-06-10T14:37:33;4.90;;;3.72;;
47589;SDS011;33316;52.298;9.056;2023-06-10T14:40:01;6.18;;;3.40;;
47589;SDS011;33316;52.298;9.056;2023-06-10T14:42:28;4.47;;;3.33;;
47589;SDS011;33316;52.298;9.056;2023-06-10T14:44:55;5.13;;;3.35;;
47589;SDS011;33316;52.298;9.056;2023-06-10T14:47:22;4.82;;;3.10;;
47589;SDS011;33316;52.298;9.056;2023-06-10T14:49:48;3.60;;;2.85;;
47589;SDS011;33316;52.298;9.056;2023-06-10T14:52:18;5.25;;;3.15;;
47589;SDS011;33316;52.298;9.056;2023-06-10T14:54:44;3.55;;;3.00;;
47589;SDS011;33316;52.298;9.056;2023-06-10T14:57:12;4.60;;;3.47;;
47589;SDS011;33316;52.298;9.056;2023-06-10T14:59:39;4.43;;;3.03;;
47589;SDS011;33316;52.298;9.056;2023-06-10T15:02:06;4.68;;;3.28;;